Terminal Aerodrome Forecast
Issued by NWS

Home | Current Version | Previous Version | Text Only | Print | Product List | Glossary On
Versions: 1 2 3 4 5 6 7 8 9 10 11 12 13 14 15 16 17 18 19
000
FTUS43 KPAH 280520
TAFCGI
TAF
KCGI 280520Z 2806/2906 20001KT 6SM BR SCT012 BKN028
      TEMPO 2806/2807 5SM -SHRA BR OVC015
     FM280700 19004KT 4SM BR OVC012
     FM281530 16010KT P6SM BKN028
     FM281800 17006KT P6SM SCT250
     FM290100 16007KT P6SM BKN030=

USA.gov is the U.S. government's official web portal to all federal, state and local government web resources and services.